sensor_id;sensor_type;location;lat;lon;timestamp;pressure;altitude;pressure_sealevel;temperature;humidity
14089;BME280;7120;52.890;6.040;2023-04-10T00:00:29;102126.97;;;7.80;85.03
14089;BME280;7120;52.890;6.040;2023-04-10T00:02:56;102125.34;;;7.79;84.81
14089;BME280;7120;52.890;6.040;2023-04-10T00:05:22;102128.06;;;7.79;85.61
14089;BME280;7120;52.890;6.040;2023-04-10T00:07:48;102123.31;;;7.69;85.79
14089;BME280;7120;52.890;6.040;2023-04-10T00:10:13;102122.22;;;7.70;86.52
14089;BME280;7120;52.890;6.040;2023-04-10T00:12:39;102119.13;;;7.62;85.50
14089;BME280;7120;52.890;6.040;2023-04-10T00:15:05;102120.25;;;7.66;85.55
14089;BME280;7120;52.890;6.040;2023-04-10T00:17:30;102122.75;;;7.51;86.33
14089;BME280;7120;52.890;6.040;2023-04-10T00:19:56;102114.84;;;7.49;86.24
14089;BME280;7120;52.890;6.040;2023-04-10T00:22:23;102122.44;;;7.47;88.38
14089;BME280;7120;52.890;6.040;2023-04-10T00:24:48;102104.38;;;7.41;86.69
14089;BME280;7120;52.890;6.040;2023-04-10T00:27:14;102107.19;;;7.29;88.12
14089;BME280;7120;52.890;6.040;2023-04-10T00:29:39;102095.56;;;7.17;88.60
14089;BME280;7120;52.890;6.040;2023-04-10T00:32:04;102091.38;;;7.26;87.87
14089;BME280;7120;52.890;6.040;2023-04-10T00:34:30;102073.88;;;7.22;88.36
14089;BME280;7120;52.890;6.040;2023-04-10T00:36:55;102060.16;;;7.12;88.93
14089;BME280;7120;52.890;6.040;2023-04-10T00:39:21;102061.38;;;7.21;87.05
14089;BME280;7120;52.890;6.040;2023-04-10T00:41:46;102062.25;;;7.27;87.46
14089;BME280;7120;52.890;6.040;2023-04-10T00:44:11;102058.13;;;7.24;87.52
14089;BME280;7120;52.890;6.040;2023-04-10T00:46:38;102051.78;;;7.19;87.62
14089;BME280;7120;52.890;6.040;2023-04-10T00:49:04;102055.56;;;7.18;87.84
14089;BME280;7120;52.890;6.040;2023-04-10T00:51:30;102050.25;;;7.06;87.84
14089;BME280;7120;52.890;6.040;2023-04-10T00:53:55;102047.84;;;7.09;87.92
14089;BME280;7120;52.890;6.040;2023-04-10T00:56:23;102049.44;;;7.05;89.20
14089;BME280;7120;52.890;6.040;2023-04-10T00:58:48;102045.94;;;7.10;88.42
14089;BME280;7120;52.890;6.040;2023-04-10T01:01:14;102042.66;;;7.08;89.31
14089;BME280;7120;52.890;6.040;2023-04-10T01:03:40;102030.78;;;6.97;89.90
14089;BME280;7120;52.890;6.040;2023-04-10T01:09:11;102019.91;;;6.97;88.74
14089;BME280;7120;52.890;6.040;2023-04-10T01:11:53;102025.78;;;7.06;88.55
14089;BME280;7120;52.890;6.040;2023-04-10T01:16:56;102019.44;;;7.00;88.69
14089;BME280;7120;52.890;6.040;2023-04-10T01:22:01;102021.16;;;7.06;88.10
14089;BME280;7120;52.890;6.040;2023-04-10T01:29:44;102012.81;;;6.96;88.60
14089;BME280;7120;52.890;6.040;2023-04-10T01:32:14;102015.63;;;7.01;88.90
14089;BME280;7120;52.890;6.040;2023-04-10T01:34:53;101998.75;;;6.99;87.43
14089;BME280;7120;52.890;6.040;2023-04-10T01:37:31;102007.38;;;6.96;87.88
14089;BME280;7120;52.890;6.040;2023-04-10T01:40:00;101998.00;;;6.87;89.48
14089;BME280;7120;52.890;6.040;2023-04-10T01:42:30;102005.91;;;6.88;88.63
14089;BME280;7120;52.890;6.040;2023-04-10T01:44:58;101993.72;;;6.74;90.59
14089;BME280;7120;52.890;6.040;2023-04-10T01:47:25;102007.81;;;6.88;87.84
14089;BME280;7120;52.890;6.040;2023-04-10T01:49:52;101995.84;;;6.89;88.88
14089;BME280;7120;52.890;6.040;2023-04-10T01:52:19;101992.75;;;6.80;89.06
14089;BME280;7120;52.890;6.040;2023-04-10T01:54:46;101993.56;;;6.81;89.08
14089;BME280;7120;52.890;6.040;2023-04-10T01:57:14;101986.47;;;6.80;89.07
14089;BME280;7120;52.890;6.040;2023-04-10T01:59:40;101987.81;;;6.77;88.43
14089;BME280;7120;52.890;6.040;2023-04-10T02:02:05;101986.66;;;6.73;88.23
14089;BME280;7120;52.890;6.040;2023-04-10T02:04:35;101988.38;;;6.79;88.38
14089;BME280;7120;52.890;6.040;2023-04-10T02:07:21;101972.50;;;6.71;88.42
14089;BME280;7120;52.890;6.040;2023-04-10T02:10:08;101964.81;;;6.68;89.20
14089;BME280;7120;52.890;6.040;2023-04-10T02:12:38;101981.63;;;6.65;89.46
14089;BME280;7120;52.890;6.040;2023-04-10T02:15:07;101980.81;;;6.65;88.28
14089;BME280;7120;52.890;6.040;2023-04-10T02:17:34;101966.16;;;6.66;89.62
14089;BME280;7120;52.890;6.040;2023-04-10T02:20:01;101976.69;;;6.79;87.98
14089;BME280;7120;52.890;6.040;2023-04-10T02:22:27;101962.28;;;6.78;87.26
14089;BME280;7120;52.890;6.040;2023-04-10T02:24:53;101959.81;;;6.77;87.80
14089;BME280;7120;52.890;6.040;2023-04-10T02:27:32;101962.00;;;6.80;88.03
14089;BME280;7120;52.890;6.040;2023-04-10T02:29:58;101963.75;;;6.86;88.96
14089;BME280;7120;52.890;6.040;2023-04-10T02:32:24;101946.34;;;6.87;88.55
14089;BME280;7120;52.890;6.040;2023-04-10T02:34:49;101950.16;;;6.86;88.02
14089;BME280;7120;52.890;6.040;2023-04-10T02:37:15;101947.00;;;6.94;87.61
14089;BME280;7120;52.890;6.040;2023-04-10T02:39:40;101955.88;;;6.89;88.24
14089;BME280;7120;52.890;6.040;2023-04-10T02:42:06;101960.34;;;6.96;87.06
14089;BME280;7120;52.890;6.040;2023-04-10T02:44:31;101964.53;;;7.03;85.85
14089;BME280;7120;52.890;6.040;2023-04-10T02:46:57;101961.56;;;7.05;86.49
14089;BME280;7120;52.890;6.040;2023-04-10T02:49:22;101960.34;;;6.96;87.26
14089;BME280;7120;52.890;6.040;2023-04-10T02:51:47;101956.50;;;6.92;86.53
14089;BME280;7120;52.890;6.040;2023-04-10T02:54:13;101958.09;;;7.09;86.99
14089;BME280;7120;52.890;6.040;2023-04-10T02:56:38;101959.84;;;6.99;87.07
14089;BME280;7120;52.890;6.040;2023-04-10T02:59:03;101961.66;;;6.93;86.98
14089;BME280;7120;52.890;6.040;2023-04-10T03:01:29;101951.91;;;6.97;86.55
14089;BME280;7120;52.890;6.040;2023-04-10T03:03:54;101958.31;;;6.86;86.72
14089;BME280;7120;52.890;6.040;2023-04-10T03:06:20;101956.16;;;6.88;87.50
14089;BME280;7120;52.890;6.040;2023-04-10T03:08:47;101958.13;;;6.76;88.45
14089;BME280;7120;52.890;6.040;2023-04-10T03:11:13;101956.84;;;6.78;88.35
14089;BME280;7120;52.890;6.040;2023-04-10T03:13:38;101959.28;;;6.80;87.93
14089;BME280;7120;52.890;6.040;2023-04-10T03:16:03;101958.38;;;6.74;88.12
14089;BME280;7120;52.890;6.040;2023-04-10T03:18:29;101951.16;;;6.63;88.31
14089;BME280;7120;52.890;6.040;2023-04-10T03:20:56;101958.72;;;6.61;89.26
14089;BME280;7120;52.890;6.040;2023-04-10T03:23:21;101958.25;;;6.64;88.90
14089;BME280;7120;52.890;6.040;2023-04-10T03:25:50;101949.31;;;6.69;88.46
14089;BME280;7120;52.890;6.040;2023-04-10T03:28:22;101946.38;;;6.53;89.38
14089;BME280;7120;52.890;6.040;2023-04-10T03:30:49;101949.19;;;6.58;89.56
14089;BME280;7120;52.890;6.040;2023-04-10T03:33:15;101942.94;;;6.58;89.58
14089;BME280;7120;52.890;6.040;2023-04-10T03:35:40;101945.97;;;6.78;89.48
14089;BME280;7120;52.890;6.040;2023-04-10T03:38:06;101950.41;;;6.84;89.45
14089;BME280;7120;52.890;6.040;2023-04-10T03:40:31;101949.38;;;6.91;88.35
14089;BME280;7120;52.890;6.040;2023-04-10T03:42:58;101950.69;;;7.05;89.28
14089;BME280;7120;52.890;6.040;2023-04-10T03:45:23;101946.63;;;7.07;87.42
14089;BME280;7120;52.890;6.040;2023-04-10T03:47:49;101935.06;;;7.17;87.82
14089;BME280;7120;52.890;6.040;2023-04-10T03:50:14;101941.84;;;7.14;87.41
14089;BME280;7120;52.890;6.040;2023-04-10T03:52:39;101934.81;;;7.19;88.93
14089;BME280;7120;52.890;6.040;2023-04-10T03:55:05;101932.66;;;7.21;88.34
14089;BME280;7120;52.890;6.040;2023-04-10T03:57:31;101925.31;;;7.21;88.03
14089;BME280;7120;52.890;6.040;2023-04-10T03:59:56;101922.53;;;7.38;88.69
14089;BME280;7120;52.890;6.040;2023-04-10T04:02:21;101912.00;;;7.47;87.33
14089;BME280;7120;52.890;6.040;2023-04-10T04:04:47;101907.19;;;7.54;87.29
14089;BME280;7120;52.890;6.040;2023-04-10T04:07:12;101899.66;;;7.61;85.94
14089;BME280;7120;52.890;6.040;2023-04-10T04:09:38;101900.69;;;7.55;86.10
14089;BME280;7120;52.890;6.040;2023-04-10T04:12:05;101898.94;;;7.70;84.68
14089;BME280;7120;52.890;6.040;2023-04-10T04:14:31;101897.94;;;7.77;85.01
14089;BME280;7120;52.890;6.040;2023-04-10T04:16:56;101899.03;;;7.81;85.10
14089;BME280;7120;52.890;6.040;2023-04-10T04:19:22;101898.53;;;7.84;85.42
14089;BME280;7120;52.890;6.040;2023-04-10T04:21:47;101893.38;;;7.82;84.90
14089;BME280;7120;52.890;6.040;2023-04-10T04:24:13;101886.25;;;7.81;84.65
14089;BME280;7120;52.890;6.040;2023-04-10T04:26:38;101882.19;;;7.84;85.21
14089;BME280;7120;52.890;6.040;2023-04-10T04:29:04;101890.06;;;7.80;84.94
14089;BME280;7120;52.890;6.040;2023-04-10T04:31:29;101884.88;;;7.79;84.50
14089;BME280;7120;52.890;6.040;2023-04-10T04:33:59;101878.75;;;7.66;85.26
14089;BME280;7120;52.890;6.040;2023-04-10T04:36:25;101871.09;;;7.63;86.01
14089;BME280;7120;52.890;6.040;2023-04-10T04:38:52;101873.28;;;7.61;85.70
14089;BME280;7120;52.890;6.040;2023-04-10T04:41:17;101868.72;;;7.45;85.72
14089;BME280;7120;52.890;6.040;2023-04-10T04:43:43;101871.16;;;7.41;86.18
14089;BME280;7120;52.890;6.040;2023-04-10T04:46:08;101884.56;;;7.48;85.79
14089;BME280;7120;52.890;6.040;2023-04-10T04:48:34;101886.50;;;7.53;85.85
14089;BME280;7120;52.890;6.040;2023-04-10T04:51:00;101872.28;;;7.46;85.75
14089;BME280;7120;52.890;6.040;2023-04-10T04:53:25;101871.16;;;7.41;85.60
14089;BME280;7120;52.890;6.040;2023-04-10T04:55:50;101860.56;;;7.45;84.79
14089;BME280;7120;52.890;6.040;2023-04-10T04:58:16;101862.38;;;7.34;86.22
14089;BME280;7120;52.890;6.040;2023-04-10T05:00:41;101862.16;;;7.41;85.96
14089;BME280;7120;52.890;6.040;2023-04-10T05:03:06;101862.41;;;7.39;85.75
14089;BME280;7120;52.890;6.040;2023-04-10T05:05:32;101853.75;;;7.42;85.83
14089;BME280;7120;52.890;6.040;2023-04-10T05:07:57;101856.97;;;7.39;84.94
14089;BME280;7120;52.890;6.040;2023-04-10T05:10:23;101868.69;;;7.40;85.41
14089;BME280;7120;52.890;6.040;2023-04-10T05:12:48;101858.31;;;7.37;86.08
14089;BME280;7120;52.890;6.040;2023-04-10T05:15:13;101855.13;;;7.45;85.04
14089;BME280;7120;52.890;6.040;2023-04-10T05:17:39;101852.59;;;7.38;86.31
14089;BME280;7120;52.890;6.040;2023-04-10T05:20:05;101854.63;;;7.48;85.58
14089;BME280;7120;52.890;6.040;2023-04-10T05:22:31;101854.97;;;7.57;85.99
14089;BME280;7120;52.890;6.040;2023-04-10T05:24:56;101852.25;;;7.57;85.72
14089;BME280;7120;52.890;6.040;2023-04-10T05:27:23;101860.56;;;7.72;84.43
14089;BME280;7120;52.890;6.040;2023-04-10T05:29:48;101857.38;;;7.80;84.65
14089;BME280;7120;52.890;6.040;2023-04-10T05:32:14;101864.25;;;7.88;84.54
14089;BME280;7120;52.890;6.040;2023-04-10T05:34:39;101862.41;;;7.93;83.62
14089;BME280;7120;52.890;6.040;2023-04-10T05:37:05;101845.25;;;7.93;82.77
14089;BME280;7120;52.890;6.040;2023-04-10T05:39:30;101851.88;;;8.07;85.25
14089;BME280;7120;52.890;6.040;2023-04-10T05:41:55;101853.47;;;8.03;81.84
14089;BME280;7120;52.890;6.040;2023-04-10T05:44:22;101866.94;;;8.15;82.43
14089;BME280;7120;52.890;6.040;2023-04-10T05:46:48;101853.91;;;8.22;81.69
14089;BME280;7120;52.890;6.040;2023-04-10T05:49:13;101865.13;;;8.25;81.92
14089;BME280;7120;52.890;6.040;2023-04-10T05:51:38;101869.66;;;8.15;82.05
14089;BME280;7120;52.890;6.040;2023-04-10T05:54:04;101853.69;;;8.29;82.27
14089;BME280;7120;52.890;6.040;2023-04-10T05:56:29;101854.00;;;8.32;81.73
14089;BME280;7120;52.890;6.040;2023-04-10T05:58:54;101844.78;;;8.38;81.26
14089;BME280;7120;52.890;6.040;2023-04-10T06:01:20;101848.72;;;8.58;81.06
14089;BME280;7120;52.890;6.040;2023-04-10T06:03:45;101853.66;;;8.61;80.98
14089;BME280;7120;52.890;6.040;2023-04-10T06:06:11;101852.84;;;8.65;81.41
14089;BME280;7120;52.890;6.040;2023-04-10T06:08:36;101860.06;;;8.82;80.26
14089;BME280;7120;52.890;6.040;2023-04-10T06:11:02;101853.31;;;8.99;80.11
14089;BME280;7120;52.890;6.040;2023-04-10T06:13:27;101850.78;;;8.88;77.84
14089;BME280;7120;52.890;6.040;2023-04-10T06:15:53;101830.97;;;9.02;78.79
14089;BME280;7120;52.890;6.040;2023-04-10T06:18:18;101830.69;;;9.09;79.12
14089;BME280;7120;52.890;6.040;2023-04-10T06:20:43;101841.09;;;9.17;78.88
14089;BME280;7120;52.890;6.040;2023-04-10T06:23:09;101822.56;;;9.34;77.61
14089;BME280;7120;52.890;6.040;2023-04-10T06:25:35;101825.59;;;9.38;75.87
14089;BME280;7120;52.890;6.040;2023-04-10T06:28:01;101815.75;;;9.37;78.35
14089;BME280;7120;52.890;6.040;2023-04-10T06:30:26;101813.63;;;9.59;77.71
14089;BME280;7120;52.890;6.040;2023-04-10T06:32:52;101808.16;;;9.75;77.02
14089;BME280;7120;52.890;6.040;2023-04-10T06:35:17;101807.34;;;9.74;74.36
14089;BME280;7120;52.890;6.040;2023-04-10T06:37:42;101805.72;;;9.83;76.53
14089;BME280;7120;52.890;6.040;2023-04-10T06:40:09;101799.44;;;9.73;75.50
14089;BME280;7120;52.890;6.040;2023-04-10T06:42:36;101791.50;;;10.02;73.72
14089;BME280;7120;52.890;6.040;2023-04-10T06:45:02;101796.69;;;9.98;73.28
14089;BME280;7120;52.890;6.040;2023-04-10T06:47:28;101792.03;;;10.09;73.34
14089;BME280;7120;52.890;6.040;2023-04-10T06:49:54;101779.16;;;10.35;70.91
14089;BME280;7120;52.890;6.040;2023-04-10T06:52:20;101788.50;;;10.24;72.20
14089;BME280;7120;52.890;6.040;2023-04-10T06:54:45;101780.78;;;10.36;71.01
14089;BME280;7120;52.890;6.040;2023-04-10T06:57:10;101778.56;;;10.48;72.40
14089;BME280;7120;52.890;6.040;2023-04-10T06:59:36;101775.25;;;10.66;70.66
14089;BME280;7120;52.890;6.040;2023-04-10T07:02:04;101766.97;;;10.77;71.69
14089;BME280;7120;52.890;6.040;2023-04-10T07:04:30;101764.81;;;10.79;69.70
14089;BME280;7120;52.890;6.040;2023-04-10T07:06:56;101768.88;;;10.81;70.93
14089;BME280;7120;52.890;6.040;2023-04-10T07:09:24;101750.97;;;10.99;69.12
14089;BME280;7120;52.890;6.040;2023-04-10T07:11:50;101760.22;;;11.13;68.28
14089;BME280;7120;52.890;6.040;2023-04-10T07:14:16;101745.19;;;11.06;67.50
14089;BME280;7120;52.890;6.040;2023-04-10T07:16:41;101748.19;;;11.48;68.99
14089;BME280;7120;52.890;6.040;2023-04-10T07:19:07;101739.31;;;11.62;66.66
14089;BME280;7120;52.890;6.040;2023-04-10T07:21:32;101729.34;;;11.76;65.65
14089;BME280;7120;52.890;6.040;2023-04-10T07:23:57;101727.41;;;11.76;68.16
14089;BME280;7120;52.890;6.040;2023-04-10T07:26:22;101719.66;;;11.89;66.63
14089;BME280;7120;52.890;6.040;2023-04-10T07:28:48;101705.22;;;12.07;64.16
14089;BME280;7120;52.890;6.040;2023-04-10T07:31:13;101710.88;;;12.16;64.27
14089;BME280;7120;52.890;6.040;2023-04-10T07:33:39;101711.81;;;12.30;64.29
14089;BME280;7120;52.890;6.040;2023-04-10T07:36:05;101707.41;;;12.53;62.67
14089;BME280;7120;52.890;6.040;2023-04-10T07:38:31;101702.38;;;12.60;62.77
14089;BME280;7120;52.890;6.040;2023-04-10T07:40:57;101699.13;;;12.58;62.68
14089;BME280;7120;52.890;6.040;2023-04-10T07:43:23;101695.63;;;12.52;61.42
14089;BME280;7120;52.890;6.040;2023-04-10T07:45:49;101692.56;;;12.54;61.41
14089;BME280;7120;52.890;6.040;2023-04-10T07:48:14;101692.25;;;12.79;63.28
14089;BME280;7120;52.890;6.040;2023-04-10T07:50:39;101694.56;;;13.29;62.65
14089;BME280;7120;52.890;6.040;2023-04-10T07:53:05;101686.28;;;13.48;61.86
14089;BME280;7120;52.890;6.040;2023-04-10T07:55:38;101684.03;;;13.50;61.41
14089;BME280;7120;52.890;6.040;2023-04-10T07:58:03;101687.84;;;13.16;61.51
14089;BME280;7120;52.890;6.040;2023-04-10T08:00:29;101679.66;;;13.49;60.18
14089;BME280;7120;52.890;6.040;2023-04-10T08:02:55;101681.84;;;13.65;61.23
14089;BME280;7120;52.890;6.040;2023-04-10T08:05:20;101670.38;;;13.77;61.76
14089;BME280;7120;52.890;6.040;2023-04-10T08:07:46;101671.69;;;13.93;58.49
14089;BME280;7120;52.890;6.040;2023-04-10T08:10:11;101671.28;;;13.86;59.26
14089;BME280;7120;52.890;6.040;2023-04-10T08:12:36;101668.13;;;13.93;58.03
14089;BME280;7120;52.890;6.040;2023-04-10T08:15:02;101673.16;;;14.18;57.21
14089;BME280;7120;52.890;6.040;2023-04-10T08:17:27;101667.00;;;14.63;57.95
14089;BME280;7120;52.890;6.040;2023-04-10T08:19:52;101667.03;;;14.49;56.04
14089;BME280;7120;52.890;6.040;2023-04-10T08:22:18;101663.28;;;14.95;55.11
14089;BME280;7120;52.890;6.040;2023-04-10T08:24:43;101656.00;;;15.21;56.22
14089;BME280;7120;52.890;6.040;2023-04-10T08:27:08;101655.56;;;15.28;54.36
14089;BME280;7120;52.890;6.040;2023-04-10T08:29:34;101656.38;;;15.73;53.39
14089;BME280;7120;52.890;6.040;2023-04-10T08:31:59;101647.88;;;15.38;53.13
14089;BME280;7120;52.890;6.040;2023-04-10T08:34:25;101651.00;;;14.37;53.70
14089;BME280;7120;52.890;6.040;2023-04-10T08:36:51;101653.81;;;15.09;54.39
14089;BME280;7120;52.890;6.040;2023-04-10T08:39:16;101651.84;;;15.55;52.67
14089;BME280;7120;52.890;6.040;2023-04-10T08:41:42;101652.19;;;16.33;51.75
14089;BME280;7120;52.890;6.040;2023-04-10T08:44:07;101644.06;;;16.28;52.25
14089;BME280;7120;52.890;6.040;2023-04-10T08:46:35;101637.28;;;16.42;48.82
14089;BME280;7120;52.890;6.040;2023-04-10T08:49:02;101649.47;;;16.50;48.45
14089;BME280;7120;52.890;6.040;2023-04-10T08:51:38;101642.13;;;16.28;52.63
14089;BME280;7120;52.890;6.040;2023-04-10T08:54:10;101630.66;;;15.64;50.54
14089;BME280;7120;52.890;6.040;2023-04-10T08:56:39;101618.56;;;16.22;50.13
14089;BME280;7120;52.890;6.040;2023-04-10T08:59:06;101618.59;;;16.39;50.93
14089;BME280;7120;52.890;6.040;2023-04-10T09:01:31;101609.72;;;15.94;49.39
14089;BME280;7120;52.890;6.040;2023-04-10T09:03:58;101620.84;;;16.29;49.25
14089;BME280;7120;52.890;6.040;2023-04-10T09:06:24;101620.44;;;16.96;51.74
14089;BME280;7120;52.890;6.040;2023-04-10T09:08:50;101611.56;;;15.68;49.90
14089;BME280;7120;52.890;6.040;2023-04-10T09:11:15;101618.59;;;16.48;48.07
14089;BME280;7120;52.890;6.040;2023-04-10T09:13:42;101613.38;;;15.72;49.84
14089;BME280;7120;52.890;6.040;2023-04-10T09:16:12;101609.31;;;15.78;49.85
14089;BME280;7120;52.890;6.040;2023-04-10T09:18:47;101609.75;;;16.03;50.48
14089;BME280;7120;52.890;6.040;2023-04-10T09:21:15;101607.53;;;15.74;51.38
14089;BME280;7120;52.890;6.040;2023-04-10T09:23:42;101607.19;;;15.44;52.83
14089;BME280;7120;52.890;6.040;2023-04-10T09:26:28;101588.84;;;15.71;53.62
14089;BME280;7120;52.890;6.040;2023-04-10T09:29:06;101583.50;;;16.40;50.64
14089;BME280;7120;52.890;6.040;2023-04-10T09:31:34;101585.78;;;16.55;49.92
14089;BME280;7120;52.890;6.040;2023-04-10T09:34:13;101581.22;;;16.25;47.98
14089;BME280;7120;52.890;6.040;2023-04-10T09:36:44;101583.09;;;15.98;50.61
14089;BME280;7120;52.890;6.040;2023-04-10T09:39:17;101570.69;;;17.13;49.85
14089;BME280;7120;52.890;6.040;2023-04-10T09:41:50;101554.63;;;17.45;48.15
14089;BME280;7120;52.890;6.040;2023-04-10T09:44:18;101555.66;;;17.32;48.92
14089;BME280;7120;52.890;6.040;2023-04-10T09:46:52;101544.81;;;17.18;48.31
14089;BME280;7120;52.890;6.040;2023-04-10T09:49:18;101556.88;;;16.44;49.71
14089;BME280;7120;52.890;6.040;2023-04-10T09:51:43;101533.97;;;16.35;49.82
14089;BME280;7120;52.890;6.040;2023-04-10T09:54:09;101537.56;;;16.35;48.19
14089;BME280;7120;52.890;6.040;2023-04-10T09:56:37;101522.38;;;15.81;51.81
14089;BME280;7120;52.890;6.040;2023-04-10T09:59:05;101515.94;;;16.03;50.22
14089;BME280;7120;52.890;6.040;2023-04-10T10:01:31;101505.66;;;15.37;50.92
14089;BME280;7120;52.890;6.040;2023-04-10T10:04:03;101506.13;;;15.71;50.64
14089;BME280;7120;52.890;6.040;2023-04-10T10:06:32;101507.19;;;15.61;51.34
14089;BME280;7120;52.890;6.040;2023-04-10T10:09:02;101505.53;;;16.00;50.67
14089;BME280;7120;52.890;6.040;2023-04-10T10:11:32;101503.78;;;15.55;51.16
14089;BME280;7120;52.890;6.040;2023-04-10T10:14:02;101514.25;;;15.76;53.48
14089;BME280;7120;52.890;6.040;2023-04-10T10:16:36;101514.94;;;15.90;51.79
14089;BME280;7120;52.890;6.040;2023-04-10T10:19:12;101501.00;;;15.55;52.24
14089;BME280;7120;52.890;6.040;2023-04-10T10:21:43;101509.53;;;15.76;51.76
14089;BME280;7120;52.890;6.040;2023-04-10T10:24:09;101499.72;;;15.53;52.86
14089;BME280;7120;52.890;6.040;2023-04-10T10:26:39;101480.66;;;15.74;51.52
14089;BME280;7120;52.890;6.040;2023-04-10T10:29:07;101475.13;;;15.65;53.91
14089;BME280;7120;52.890;6.040;2023-04-10T10:31:38;101471.78;;;15.94;52.45
14089;BME280;7120;52.890;6.040;2023-04-10T10:34:04;101462.03;;;15.79;51.64
14089;BME280;7120;52.890;6.040;2023-04-10T10:36:32;101460.47;;;15.56;50.95
14089;BME280;7120;52.890;6.040;2023-04-10T10:39:12;101444.03;;;16.42;51.90
14089;BME280;7120;52.890;6.040;2023-04-10T10:42:04;101436.97;;;16.62;48.76
14089;BME280;7120;52.890;6.040;2023-04-10T10:44:46;101436.22;;;16.36;50.68
14089;BME280;7120;52.890;6.040;2023-04-10T10:47:19;101435.75;;;16.08;53.06
14089;BME280;7120;52.890;6.040;2023-04-10T10:50:01;101429.88;;;16.27;51.94
14089;BME280;7120;52.890;6.040;2023-04-10T10:57:57;101403.91;;;17.00;49.63
14089;BME280;7120;52.890;6.040;2023-04-10T11:00:23;101399.19;;;16.45;52.03
14089;BME280;7120;52.890;6.040;2023-04-10T11:05:55;101389.47;;;16.13;50.63
14089;BME280;7120;52.890;6.040;2023-04-10T11:10:59;101379.72;;;16.25;52.00
14089;BME280;7120;52.890;6.040;2023-04-10T11:13:26;101381.56;;;15.95;52.24
14089;BME280;7120;52.890;6.040;2023-04-10T11:15:53;101368.72;;;15.90;51.43
14089;BME280;7120;52.890;6.040;2023-04-10T11:21:16;101357.81;;;16.37;52.12
14089;BME280;7120;52.890;6.040;2023-04-10T11:26:41;101339.06;;;17.27;53.81
14089;BME280;7120;52.890;6.040;2023-04-10T11:31:44;101321.53;;;17.23;50.11
14089;BME280;7120;52.890;6.040;2023-04-10T11:34:10;101333.22;;;17.92;49.04
14089;BME280;7120;52.890;6.040;2023-04-10T11:36:40;101329.13;;;18.10;49.44
14089;BME280;7120;52.890;6.040;2023-04-10T11:39:11;101321.13;;;17.34;47.24
14089;BME280;7120;52.890;6.040;2023-04-10T11:41:45;101302.91;;;17.53;49.12
14089;BME280;7120;52.890;6.040;2023-04-10T11:44:15;101302.22;;;18.44;48.80
14089;BME280;7120;52.890;6.040;2023-04-10T11:46:44;101299.59;;;18.47;48.33
14089;BME280;7120;52.890;6.040;2023-04-10T11:49:16;101290.34;;;17.98;47.35
14089;BME280;7120;52.890;6.040;2023-04-10T11:51:44;101288.75;;;17.76;50.49
14089;BME280;7120;52.890;6.040;2023-04-10T11:54:12;101292.44;;;18.01;46.90
14089;BME280;7120;52.890;6.040;2023-04-10T11:56:40;101289.31;;;17.69;48.05
14089;BME280;7120;52.890;6.040;2023-04-10T11:59:06;101285.53;;;18.07;50.15
14089;BME280;7120;52.890;6.040;2023-04-10T12:01:35;101274.97;;;17.88;47.44
14089;BME280;7120;52.890;6.040;2023-04-10T12:04:00;101265.66;;;17.93;49.19
14089;BME280;7120;52.890;6.040;2023-04-10T12:06:26;101251.28;;;18.11;49.21
14089;BME280;7120;52.890;6.040;2023-04-10T12:08:52;101249.41;;;17.70;47.76
14089;BME280;7120;52.890;6.040;2023-04-10T12:11:24;101255.78;;;17.29;50.19
14089;BME280;7120;52.890;6.040;2023-04-10T12:13:55;101255.69;;;17.58;50.89
14089;BME280;7120;52.890;6.040;2023-04-10T12:16:21;101259.63;;;17.37;51.00
14089;BME280;7120;52.890;6.040;2023-04-10T12:18:48;101247.66;;;16.82;51.19
14089;BME280;7120;52.890;6.040;2023-04-10T12:21:13;101244.09;;;16.82;50.85
14089;BME280;7120;52.890;6.040;2023-04-10T12:23:39;101249.78;;;16.77;52.56
14089;BME280;7120;52.890;6.040;2023-04-10T12:26:13;101244.44;;;16.33;52.73
14089;BME280;7120;52.890;6.040;2023-04-10T12:28:41;101255.94;;;15.97;55.82
14089;BME280;7120;52.890;6.040;2023-04-10T12:31:13;101236.72;;;16.18;54.00
14089;BME280;7120;52.890;6.040;2023-04-10T12:33:38;101242.13;;;16.06;54.49
14089;BME280;7120;52.890;6.040;2023-04-10T12:36:04;101234.78;;;16.18;55.99
14089;BME280;7120;52.890;6.040;2023-04-10T12:38:38;101234.63;;;16.15;55.14
14089;BME280;7120;52.890;6.040;2023-04-10T12:41:04;101220.78;;;16.62;52.92
14089;BME280;7120;52.890;6.040;2023-04-10T12:43:31;101221.56;;;16.62;52.52
14089;BME280;7120;52.890;6.040;2023-04-10T12:45:58;101210.16;;;16.43;53.49
14089;BME280;7120;52.890;6.040;2023-04-10T12:48:23;101211.75;;;16.82;53.90
14089;BME280;7120;52.890;6.040;2023-04-10T12:50:49;101181.50;;;16.86;54.04
14089;BME280;7120;52.890;6.040;2023-04-10T12:53:14;101182.63;;;16.55;53.09
14089;BME280;7120;52.890;6.040;2023-04-10T12:55:40;101179.06;;;16.55;51.88
14089;BME280;7120;52.890;6.040;2023-04-10T12:58:18;101175.91;;;16.94;54.65
14089;BME280;7120;52.890;6.040;2023-04-10T13:00:47;101162.78;;;16.62;53.85
14089;BME280;7120;52.890;6.040;2023-04-10T13:03:12;101154.03;;;15.92;54.50
14089;BME280;7120;52.890;6.040;2023-04-10T13:05:38;101153.00;;;16.14;54.56
14089;BME280;7120;52.890;6.040;2023-04-10T13:08:03;101139.09;;;16.02;54.50
14089;BME280;7120;52.890;6.040;2023-04-10T13:10:28;101137.59;;;16.04;55.80
14089;BME280;7120;52.890;6.040;2023-04-10T13:12:54;101131.50;;;15.90;55.25
14089;BME280;7120;52.890;6.040;2023-04-10T13:15:20;101124.28;;;15.59;56.19
14089;BME280;7120;52.890;6.040;2023-04-10T13:17:45;101113.91;;;16.03;58.27
14089;BME280;7120;52.890;6.040;2023-04-10T13:20:10;101100.41;;;16.10;56.18
14089;BME280;7120;52.890;6.040;2023-04-10T13:22:37;101097.63;;;15.81;58.38
14089;BME280;7120;52.890;6.040;2023-04-10T13:25:03;101096.09;;;16.01;57.07
14089;BME280;7120;52.890;6.040;2023-04-10T13:27:29;101084.38;;;15.74;58.75
14089;BME280;7120;52.890;6.040;2023-04-10T13:29:54;101080.50;;;15.58;58.60
14089;BME280;7120;52.890;6.040;2023-04-10T13:32:19;101068.19;;;15.55;58.57
14089;BME280;7120;52.890;6.040;2023-04-10T13:34:45;101065.94;;;15.49;59.27
14089;BME280;7120;52.890;6.040;2023-04-10T13:37:11;101052.66;;;15.42;58.72